sensor_id;sensor_type;location;lat;lon;timestamp;pressure;altitude;pressure_sealevel;temperature;humidity
46954;BME280;32707;43.886;12.874;2022-09-27T00:01:58;100134.34;;;15.86;83.29
46954;BME280;32707;43.886;12.874;2022-09-27T00:04:25;100128.28;;;15.84;82.94
46954;BME280;32707;43.886;12.874;2022-09-27T00:06:50;100114.09;;;15.80;82.66
46954;BME280;32707;43.886;12.874;2022-09-27T00:09:15;100104.75;;;15.76;82.71
46954;BME280;32707;43.886;12.874;2022-09-27T00:11:41;100091.50;;;15.77;82.97
46954;BME280;32707;43.886;12.874;2022-09-27T00:14:10;100093.91;;;15.78;83.04
46954;BME280;32707;43.886;12.874;2022-09-27T00:16:39;100083.41;;;15.75;82.62
46954;BME280;32707;43.886;12.874;2022-09-27T00:19:09;100092.94;;;15.70;82.87
46954;BME280;32707;43.886;12.874;2022-09-27T00:21:35;100091.69;;;15.68;82.85
46954;BME280;32707;43.886;12.874;2022-09-27T00:24:00;100088.50;;;15.69;82.68
46954;BME280;32707;43.886;12.874;2022-09-27T00:26:26;100077.66;;;15.71;82.74
46954;BME280;32707;43.886;12.874;2022-09-27T00:28:52;100078.28;;;15.81;82.79
46954;BME280;32707;43.886;12.874;2022-09-27T00:31:20;100073.22;;;15.90;82.36
46954;BME280;32707;43.886;12.874;2022-09-27T00:33:47;100065.34;;;16.03;82.02
46954;BME280;32707;43.886;12.874;2022-09-27T00:36:13;100070.50;;;16.20;81.64
46954;BME280;32707;43.886;12.874;2022-09-27T00:38:40;100069.47;;;16.32;80.78
46954;BME280;32707;43.886;12.874;2022-09-27T00:41:06;100073.22;;;16.40;80.67
46954;BME280;32707;43.886;12.874;2022-09-27T00:46:12;100067.66;;;16.43;80.63
46954;BME280;32707;43.886;12.874;2022-09-27T00:48:40;100065.25;;;16.45;80.00
46954;BME280;32707;43.886;12.874;2022-09-27T00:51:06;100068.94;;;16.49;80.31
46954;BME280;32707;43.886;12.874;2022-09-27T00:53:37;100066.59;;;16.55;79.91
46954;BME280;32707;43.886;12.874;2022-09-27T00:56:09;100064.69;;;16.59;79.40
46954;BME280;32707;43.886;12.874;2022-09-27T00:58:41;100062.59;;;16.56;79.53
46954;BME280;32707;43.886;12.874;2022-09-27T01:01:09;100059.78;;;16.56;79.49
46954;BME280;32707;43.886;12.874;2022-09-27T01:03:59;100057.28;;;16.51;79.53
46954;BME280;32707;43.886;12.874;2022-09-27T01:06:27;100048.63;;;16.40;79.17
46954;BME280;32707;43.886;12.874;2022-09-27T01:08:53;100046.47;;;16.30;79.87
46954;BME280;32707;43.886;12.874;2022-09-27T01:14:21;100045.66;;;16.06;80.29
46954;BME280;32707;43.886;12.874;2022-09-27T01:35:39;100005.59;;;15.97;80.70
46954;BME280;32707;43.886;12.874;2022-09-27T01:40:53;99988.16;;;16.41;79.58
46954;BME280;32707;43.886;12.874;2022-09-27T01:43:25;99988.38;;;16.56;78.68
46954;BME280;32707;43.886;12.874;2022-09-27T01:46:01;99994.16;;;16.66;78.57
46954;BME280;32707;43.886;12.874;2022-09-27T01:48:39;99994.69;;;16.76;77.69
46954;BME280;32707;43.886;12.874;2022-09-27T01:51:10;100000.34;;;16.76;78.01
46954;BME280;32707;43.886;12.874;2022-09-27T01:53:43;99998.63;;;16.67;77.81
46954;BME280;32707;43.886;12.874;2022-09-27T01:56:26;99999.72;;;16.59;77.90
46954;BME280;32707;43.886;12.874;2022-09-27T01:59:04;99998.75;;;16.48;78.16
46954;BME280;32707;43.886;12.874;2022-09-27T02:01:35;99997.38;;;16.38;78.00
46954;BME280;32707;43.886;12.874;2022-09-27T02:04:04;99993.16;;;16.25;77.90
46954;BME280;32707;43.886;12.874;2022-09-27T02:06:35;99980.06;;;16.13;78.83
46954;BME280;32707;43.886;12.874;2022-09-27T02:11:54;99983.03;;;15.97;79.36
46954;BME280;32707;43.886;12.874;2022-09-27T02:14:29;99978.47;;;15.89;79.56
46954;BME280;32707;43.886;12.874;2022-09-27T02:20:17;99965.59;;;15.68;79.63
46954;BME280;32707;43.886;12.874;2022-09-27T02:22:52;99972.75;;;15.62;79.42
46954;BME280;32707;43.886;12.874;2022-09-27T02:28:05;99980.06;;;15.67;79.33
46954;BME280;32707;43.886;12.874;2022-09-27T02:30:35;99971.25;;;15.68;78.86
46954;BME280;32707;43.886;12.874;2022-09-27T02:33:00;99963.06;;;15.83;79.48
46954;BME280;32707;43.886;12.874;2022-09-27T02:35:31;99971.31;;;15.95;79.04
46954;BME280;32707;43.886;12.874;2022-09-27T02:37:57;99971.59;;;16.13;78.71
46954;BME280;32707;43.886;12.874;2022-09-27T02:40:24;99967.47;;;16.33;78.13
46954;BME280;32707;43.886;12.874;2022-09-27T02:42:54;99958.03;;;16.49;77.58
46954;BME280;32707;43.886;12.874;2022-09-27T02:45:20;99961.44;;;16.62;77.00
46954;BME280;32707;43.886;12.874;2022-09-27T02:48:06;99959.56;;;16.73;76.63
46954;BME280;32707;43.886;12.874;2022-09-27T02:53:41;99936.03;;;16.96;75.55
46954;BME280;32707;43.886;12.874;2022-09-27T03:02:12;99934.38;;;17.25;74.06
46954;BME280;32707;43.886;12.874;2022-09-27T03:04:44;99944.41;;;17.22;74.26
46954;BME280;32707;43.886;12.874;2022-09-27T03:07:12;99941.97;;;17.21;74.16
46954;BME280;32707;43.886;12.874;2022-09-27T03:09:50;99944.78;;;17.21;74.00
46954;BME280;32707;43.886;12.874;2022-09-27T03:12:17;99937.09;;;17.18;73.98
46954;BME280;32707;43.886;12.874;2022-09-27T03:14:47;99925.75;;;17.14;73.72
46954;BME280;32707;43.886;12.874;2022-09-27T03:17:13;99921.69;;;17.12;73.86
46954;BME280;32707;43.886;12.874;2022-09-27T03:19:38;99919.69;;;17.12;73.76
46954;BME280;32707;43.886;12.874;2022-09-27T03:22:04;99918.03;;;17.11;73.29
46954;BME280;32707;43.886;12.874;2022-09-27T03:24:29;99915.59;;;17.09;73.61
46954;BME280;32707;43.886;12.874;2022-09-27T03:26:55;99913.63;;;17.10;73.27
46954;BME280;32707;43.886;12.874;2022-09-27T03:29:20;99920.09;;;17.14;73.02
46954;BME280;32707;43.886;12.874;2022-09-27T03:31:45;99914.88;;;17.16;72.92
46954;BME280;32707;43.886;12.874;2022-09-27T03:34:11;99909.19;;;17.13;73.05
46954;BME280;32707;43.886;12.874;2022-09-27T03:36:36;99906.75;;;17.11;72.60
46954;BME280;32707;43.886;12.874;2022-09-27T03:39:02;99903.91;;;17.11;72.55
46954;BME280;32707;43.886;12.874;2022-09-27T03:41:27;99892.19;;;17.09;72.30
46954;BME280;32707;43.886;12.874;2022-09-27T03:43:53;99893.00;;;17.09;72.59
46954;BME280;32707;43.886;12.874;2022-09-27T03:46:22;99884.47;;;17.06;72.02
46954;BME280;32707;43.886;12.874;2022-09-27T03:48:47;99888.56;;;17.08;72.19
46954;BME280;32707;43.886;12.874;2022-09-27T03:51:13;99887.75;;;17.08;71.83
46954;BME280;32707;43.886;12.874;2022-09-27T03:53:38;99881.31;;;17.11;71.87
46954;BME280;32707;43.886;12.874;2022-09-27T03:56:03;99887.81;;;17.15;71.61
46954;BME280;32707;43.886;12.874;2022-09-27T03:58:29;99887.44;;;17.20;71.59
46954;BME280;32707;43.886;12.874;2022-09-27T04:00:54;99883.09;;;17.30;71.07
46954;BME280;32707;43.886;12.874;2022-09-27T04:03:20;99881.53;;;17.33;71.08
46954;BME280;32707;43.886;12.874;2022-09-27T04:05:45;99886.78;;;17.34;70.74
46954;BME280;32707;43.886;12.874;2022-09-27T04:08:11;99885.16;;;17.33;70.57
46954;BME280;32707;43.886;12.874;2022-09-27T04:10:37;99896.50;;;17.37;70.29
46954;BME280;32707;43.886;12.874;2022-09-27T04:13:03;99880.72;;;17.36;70.04
46954;BME280;32707;43.886;12.874;2022-09-27T04:15:29;99878.66;;;17.29;70.20
46954;BME280;32707;43.886;12.874;2022-09-27T04:17:54;99877.38;;;17.23;70.39
46954;BME280;32707;43.886;12.874;2022-09-27T04:20:19;99877.38;;;17.19;70.10
46954;BME280;32707;43.886;12.874;2022-09-27T04:22:45;99881.38;;;17.18;70.35
46954;BME280;32707;43.886;12.874;2022-09-27T04:25:11;99867.22;;;17.15;70.36
46954;BME280;32707;43.886;12.874;2022-09-27T04:27:37;99875.69;;;17.15;70.14
46954;BME280;32707;43.886;12.874;2022-09-27T04:30:03;99869.97;;;17.07;70.12
46954;BME280;32707;43.886;12.874;2022-09-27T04:32:30;99877.19;;;17.01;70.16
46954;BME280;32707;43.886;12.874;2022-09-27T04:34:56;99877.13;;;16.98;70.52
46954;BME280;32707;43.886;12.874;2022-09-27T04:37:40;99872.19;;;16.91;70.35
46954;BME280;32707;43.886;12.874;2022-09-27T04:40:06;99866.09;;;16.85;70.66
46954;BME280;32707;43.886;12.874;2022-09-27T04:42:32;99867.00;;;16.93;70.15
46954;BME280;32707;43.886;12.874;2022-09-27T04:44:58;99873.09;;;16.95;69.65
46954;BME280;32707;43.886;12.874;2022-09-27T04:47:23;99869.84;;;16.93;69.82
46954;BME280;32707;43.886;12.874;2022-09-27T04:49:49;99870.19;;;16.88;70.17
46954;BME280;32707;43.886;12.874;2022-09-27T04:52:14;99873.69;;;16.81;69.93
46954;BME280;32707;43.886;12.874;2022-09-27T04:54:40;99871.19;;;16.73;70.05
46954;BME280;32707;43.886;12.874;2022-09-27T04:57:06;99869.06;;;16.66;70.14
46954;BME280;32707;43.886;12.874;2022-09-27T04:59:32;99862.16;;;16.60;70.71
46954;BME280;32707;43.886;12.874;2022-09-27T05:01:57;99863.75;;;16.61;70.71
46954;BME280;32707;43.886;12.874;2022-09-27T05:04:26;99869.81;;;16.59;70.27
46954;BME280;32707;43.886;12.874;2022-09-27T05:06:52;99873.84;;;16.58;69.89
46954;BME280;32707;43.886;12.874;2022-09-27T05:09:18;99879.47;;;16.58;70.52
46954;BME280;32707;43.886;12.874;2022-09-27T05:11:43;99880.25;;;16.55;69.93
46954;BME280;32707;43.886;12.874;2022-09-27T05:14:09;99886.66;;;16.52;70.06
46954;BME280;32707;43.886;12.874;2022-09-27T05:16:34;99879.81;;;16.53;70.31
46954;BME280;32707;43.886;12.874;2022-09-27T05:19:03;99881.44;;;16.54;70.31
46954;BME280;32707;43.886;12.874;2022-09-27T05:21:28;99874.22;;;16.57;70.28
46954;BME280;32707;43.886;12.874;2022-09-27T05:23:55;99859.75;;;16.62;70.22
46954;BME280;32707;43.886;12.874;2022-09-27T05:26:21;99869.53;;;16.71;69.71
46954;BME280;32707;43.886;12.874;2022-09-27T05:28:46;99845.81;;;16.76;69.76
46954;BME280;32707;43.886;12.874;2022-09-27T05:31:12;99848.38;;;16.88;69.34
46954;BME280;32707;43.886;12.874;2022-09-27T05:33:39;99840.03;;;16.99;68.99
46954;BME280;32707;43.886;12.874;2022-09-27T05:36:05;99840.56;;;17.12;68.65
46954;BME280;32707;43.886;12.874;2022-09-27T05:38:31;99836.56;;;17.20;68.55
46954;BME280;32707;43.886;12.874;2022-09-27T05:40:56;99836.69;;;17.31;68.21
46954;BME280;32707;43.886;12.874;2022-09-27T05:43:22;99837.19;;;17.44;67.78
46954;BME280;32707;43.886;12.874;2022-09-27T05:45:49;99831.19;;;17.53;67.48
46954;BME280;32707;43.886;12.874;2022-09-27T05:48:15;99840.16;;;17.62;67.42
46954;BME280;32707;43.886;12.874;2022-09-27T05:50:41;99841.88;;;17.77;67.04
46954;BME280;32707;43.886;12.874;2022-09-27T05:53:08;99831.94;;;18.01;66.51
46954;BME280;32707;43.886;12.874;2022-09-27T05:55:34;99821.97;;;18.25;65.86
46954;BME280;32707;43.886;12.874;2022-09-27T05:58:05;99828.94;;;18.50;65.05
46954;BME280;32707;43.886;12.874;2022-09-27T06:00:31;99824.94;;;18.69;64.37
46954;BME280;32707;43.886;12.874;2022-09-27T06:03:02;99826.66;;;18.88;64.08
46954;BME280;32707;43.886;12.874;2022-09-27T06:05:30;99827.50;;;19.06;63.51
46954;BME280;32707;43.886;12.874;2022-09-27T06:08:00;99836.03;;;19.28;62.82
46954;BME280;32707;43.886;12.874;2022-09-27T06:10:27;99821.84;;;19.46;62.16
46954;BME280;32707;43.886;12.874;2022-09-27T06:13:00;99829.13;;;19.65;61.69
46954;BME280;32707;43.886;12.874;2022-09-27T06:15:27;99824.66;;;19.85;61.49
46954;BME280;32707;43.886;12.874;2022-09-27T06:17:52;99833.94;;;20.07;60.69
46954;BME280;32707;43.886;12.874;2022-09-27T06:20:18;99834.69;;;20.33;60.33
46954;BME280;32707;43.886;12.874;2022-09-27T06:22:45;99823.63;;;20.60;59.63
46954;BME280;32707;43.886;12.874;2022-09-27T06:25:10;99816.53;;;20.93;58.99
46954;BME280;32707;43.886;12.874;2022-09-27T06:27:36;99820.31;;;21.28;58.12
46954;BME280;32707;43.886;12.874;2022-09-27T06:30:03;99824.13;;;21.63;57.53
46954;BME280;32707;43.886;12.874;2022-09-27T06:32:28;99823.28;;;22.08;56.71
46954;BME280;32707;43.886;12.874;2022-09-27T06:34:53;99827.19;;;22.56;55.89
46954;BME280;32707;43.886;12.874;2022-09-27T06:37:19;99832.31;;;22.99;54.86
46954;BME280;32707;43.886;12.874;2022-09-27T06:39:44;99830.81;;;23.45;53.98
46954;BME280;32707;43.886;12.874;2022-09-27T06:42:13;99833.25;;;23.94;53.28
46954;BME280;32707;43.886;12.874;2022-09-27T06:44:38;99825.19;;;24.29;52.67
46954;BME280;32707;43.886;12.874;2022-09-27T06:47:04;99834.09;;;24.74;51.62
46954;BME280;32707;43.886;12.874;2022-09-27T06:49:29;99827.28;;;25.05;51.06
46954;BME280;32707;43.886;12.874;2022-09-27T06:51:55;99822.78;;;25.40;50.39
46954;BME280;32707;43.886;12.874;2022-09-27T06:54:21;99819.06;;;25.72;49.75
46954;BME280;32707;43.886;12.874;2022-09-27T06:56:47;99816.38;;;25.98;49.06
46954;BME280;32707;43.886;12.874;2022-09-27T06:59:12;99817.03;;;26.18;48.70
46954;BME280;32707;43.886;12.874;2022-09-27T07:01:56;99823.69;;;26.57;48.04
46954;BME280;32707;43.886;12.874;2022-09-27T07:04:21;99825.16;;;26.79;47.62
46954;BME280;32707;43.886;12.874;2022-09-27T07:06:47;99823.78;;;26.96;47.25
46954;BME280;32707;43.886;12.874;2022-09-27T07:09:12;99816.09;;;27.19;46.36
46954;BME280;32707;43.886;12.874;2022-09-27T07:11:38;99823.91;;;27.44;45.93
46954;BME280;32707;43.886;12.874;2022-09-27T07:14:04;99818.91;;;27.70;45.33
46954;BME280;32707;43.886;12.874;2022-09-27T07:16:30;99819.66;;;27.96;44.82
46954;BME280;32707;43.886;12.874;2022-09-27T07:18:56;99819.56;;;28.22;44.30
46954;BME280;32707;43.886;12.874;2022-09-27T07:21:22;99818.63;;;28.25;43.87
46954;BME280;32707;43.886;12.874;2022-09-27T07:23:48;99823.69;;;28.21;43.46
46954;BME280;32707;43.886;12.874;2022-09-27T07:26:14;99809.38;;;28.30;43.13
46954;BME280;32707;43.886;12.874;2022-09-27T07:28:39;99816.09;;;28.27;42.81
46954;BME280;32707;43.886;12.874;2022-09-27T07:31:09;99815.50;;;28.54;42.34
46954;BME280;32707;43.886;12.874;2022-09-27T07:33:35;99820.97;;;28.83;41.56
46954;BME280;32707;43.886;12.874;2022-09-27T07:36:05;99813.50;;;28.95;41.14
46954;BME280;32707;43.886;12.874;2022-09-27T07:38:31;99816.88;;;29.03;40.68
46954;BME280;32707;43.886;12.874;2022-09-27T07:40:57;99826.91;;;29.20;40.35
46954;BME280;32707;43.886;12.874;2022-09-27T07:43:23;99830.44;;;29.15;40.33
46954;BME280;32707;43.886;12.874;2022-09-27T07:45:48;99826.56;;;29.18;39.81
46954;BME280;32707;43.886;12.874;2022-09-27T07:48:15;99814.44;;;29.23;39.50
46954;BME280;32707;43.886;12.874;2022-09-27T07:50:41;99833.16;;;29.28;39.03
46954;BME280;32707;43.886;12.874;2022-09-27T07:53:06;99822.16;;;29.26;38.92
46954;BME280;32707;43.886;12.874;2022-09-27T07:55:32;99828.09;;;29.32;38.76
46954;BME280;32707;43.886;12.874;2022-09-27T07:58:05;99805.41;;;29.53;38.29
46954;BME280;32707;43.886;12.874;2022-09-27T08:00:31;99829.47;;;29.68;38.14
46954;BME280;32707;43.886;12.874;2022-09-27T08:02:56;99813.19;;;29.93;37.81
46954;BME280;32707;43.886;12.874;2022-09-27T08:05:22;99821.53;;;30.09;37.20
46954;BME280;32707;43.886;12.874;2022-09-27T08:07:53;99806.78;;;29.89;36.77
46954;BME280;32707;43.886;12.874;2022-09-27T08:10:18;99816.53;;;30.00;36.67
46954;BME280;32707;43.886;12.874;2022-09-27T08:12:44;99826.16;;;30.25;36.25
46954;BME280;32707;43.886;12.874;2022-09-27T08:15:10;99815.25;;;30.20;36.39
46954;BME280;32707;43.886;12.874;2022-09-27T08:17:35;99821.53;;;30.28;35.77
46954;BME280;32707;43.886;12.874;2022-09-27T08:20:00;99820.72;;;30.46;35.52
46954;BME280;32707;43.886;12.874;2022-09-27T08:22:30;99806.09;;;30.68;35.42
46954;BME280;32707;43.886;12.874;2022-09-27T08:24:55;99818.25;;;30.90;34.81
46954;BME280;32707;43.886;12.874;2022-09-27T08:27:21;99810.34;;;31.00;34.64
46954;BME280;32707;43.886;12.874;2022-09-27T08:29:46;99815.13;;;31.12;34.16
46954;BME280;32707;43.886;12.874;2022-09-27T08:32:13;99807.75;;;31.02;34.15
46954;BME280;32707;43.886;12.874;2022-09-27T08:34:38;99809.88;;;30.92;33.98
46954;BME280;32707;43.886;12.874;2022-09-27T08:37:04;99807.28;;;31.04;33.74
46954;BME280;32707;43.886;12.874;2022-09-27T08:39:30;99802.69;;;31.21;33.28
46954;BME280;32707;43.886;12.874;2022-09-27T08:47:01;99802.53;;;31.82;32.54
46954;BME280;32707;43.886;12.874;2022-09-27T08:49:38;99804.13;;;32.07;32.23
46954;BME280;32707;43.886;12.874;2022-09-27T08:52:07;99801.72;;;32.06;32.35
46954;BME280;32707;43.886;12.874;2022-09-27T08:54:38;99818.31;;;32.20;32.08
46954;BME280;32707;43.886;12.874;2022-09-27T08:57:08;99805.44;;;32.06;31.69
46954;BME280;32707;43.886;12.874;2022-09-27T08:59:49;99810.72;;;31.84;32.12
46954;BME280;32707;43.886;12.874;2022-09-27T09:02:20;99801.41;;;31.80;31.90
46954;BME280;32707;43.886;12.874;2022-09-27T09:04:50;99800.47;;;31.97;31.78
46954;BME280;32707;43.886;12.874;2022-09-27T09:10:02;99806.22;;;32.61;30.83
46954;BME280;32707;43.886;12.874;2022-09-27T09:12:53;99795.75;;;32.78;30.62
46954;BME280;32707;43.886;12.874;2022-09-27T09:24:39;99787.31;;;32.95;30.00
46954;BME280;32707;43.886;12.874;2022-09-27T09:30:43;99799.50;;;33.14;29.85
46954;BME280;32707;43.886;12.874;2022-09-27T09:32:45;99801.72;;;32.89;30.21
46954;BME280;32707;43.886;12.874;2022-09-27T09:35:20;99799.09;;;33.21;30.10
46954;BME280;32707;43.886;12.874;2022-09-27T09:37:52;99796.97;;;33.57;29.71
46954;BME280;32707;43.886;12.874;2022-09-27T09:42:59;99813.72;;;34.03;28.75
46954;BME280;32707;43.886;12.874;2022-09-27T09:45:33;99793.13;;;33.81;28.97
46954;BME280;32707;43.886;12.874;2022-09-27T09:50:53;99830.88;;;29.63;34.42
46954;BME280;32707;43.886;12.874;2022-09-27T09:53:43;99828.97;;;29.70;34.28
46954;BME280;32707;43.886;12.874;2022-09-27T09:59:01;99830.66;;;27.24;36.96
46954;BME280;32707;43.886;12.874;2022-09-27T10:01:43;99841.28;;;25.68;39.50
46954;BME280;32707;43.886;12.874;2022-09-27T10:04:27;99827.06;;;24.95;40.32
46954;BME280;32707;43.886;12.874;2022-09-27T10:06:54;99837.03;;;24.71;40.46
46954;BME280;32707;43.886;12.874;2022-09-27T10:09:26;99834.09;;;24.54;40.72
46954;BME280;32707;43.886;12.874;2022-09-27T10:11:52;99827.63;;;24.30;40.96
46954;BME280;32707;43.886;12.874;2022-09-27T10:14:20;99820.88;;;24.20;41.03
46954;BME280;32707;43.886;12.874;2022-09-27T10:16:56;99829.94;;;23.95;41.25
46954;BME280;32707;43.886;12.874;2022-09-27T10:19:31;99848.97;;;23.82;41.45
46954;BME280;32707;43.886;12.874;2022-09-27T10:22:09;99831.56;;;23.96;41.19
46954;BME280;32707;43.886;12.874;2022-09-27T10:24:57;99837.81;;;24.11;40.92
46954;BME280;32707;43.886;12.874;2022-09-27T10:27:24;99831.28;;;24.51;40.53
46954;BME280;32707;43.886;12.874;2022-09-27T10:29:59;99832.84;;;24.35;40.92
46954;BME280;32707;43.886;12.874;2022-09-27T10:32:29;99837.53;;;24.25;41.22
46954;BME280;32707;43.886;12.874;2022-09-27T10:37:45;99827.47;;;24.17;41.45
46954;BME280;32707;43.886;12.874;2022-09-27T10:40:31;99827.78;;;24.43;41.25
46954;BME280;32707;43.886;12.874;2022-09-27T10:42:58;99833.72;;;24.72;40.67
46954;BME280;32707;43.886;12.874;2022-09-27T10:45:30;99828.13;;;25.71;39.22
46954;BME280;32707;43.886;12.874;2022-09-27T10:48:00;99834.31;;;25.36;39.93
46954;BME280;32707;43.886;12.874;2022-09-27T10:50:28;99820.66;;;25.08;40.63
46954;BME280;32707;43.886;12.874;2022-09-27T10:53:11;99824.88;;;24.67;41.41
46954;BME280;32707;43.886;12.874;2022-09-27T10:55:38;99811.00;;;25.18;41.04
46954;BME280;32707;43.886;12.874;2022-09-27T10:58:05;99813.88;;;25.18;40.85
46954;BME280;32707;43.886;12.874;2022-09-27T11:00:33;99808.75;;;24.93;41.28
46954;BME280;32707;43.886;12.874;2022-09-27T11:03:21;99811.16;;;25.11;41.26
46954;BME280;32707;43.886;12.874;2022-09-27T11:05:46;99810.13;;;25.37;40.85
46954;BME280;32707;43.886;12.874;2022-09-27T11:10:44;99812.25;;;25.00;41.63
46954;BME280;32707;43.886;12.874;2022-09-27T11:13:18;99801.03;;;25.42;40.90
46954;BME280;32707;43.886;12.874;2022-09-27T11:40:17;99800.00;;;24.03;43.54
46954;BME280;32707;43.886;12.874;2022-09-27T11:55:06;99799.94;;;24.27;43.12
46954;BME280;32707;43.886;12.874;2022-09-27T12:00:19;99797.66;;;23.75;44.22
46954;BME280;32707;43.886;12.874;2022-09-27T12:11:25;99783.94;;;23.19;45.17
46954;BME280;32707;43.886;12.874;2022-09-27T12:13:59;99801.50;;;23.17;45.19
46954;BME280;32707;43.886;12.874;2022-09-27T12:16:27;99800.38;;;23.35;44.99
46954;BME280;32707;43.886;12.874;2022-09-27T12:18:55;99807.97;;;23.45;44.88
46954;BME280;32707;43.886;12.874;2022-09-27T12:21:23;99790.91;;;23.41;44.90
46954;BME280;32707;43.886;12.874;2022-09-27T12:23:52;99796.00;;;23.30;45.33
46954;BME280;32707;43.886;12.874;2022-09-27T12:28:53;99797.84;;;23.17;45.49
46954;BME280;32707;43.886;12.874;2022-09-27T12:34:07;99791.22;;;24.14;44.22
46954;BME280;32707;43.886;12.874;2022-09-27T12:36:38;99787.69;;;26.82;39.75
46954;BME280;32707;43.886;12.874;2022-09-27T12:39:37;99788.44;;;28.74;37.10
46954;BME280;32707;43.886;12.874;2022-09-27T12:42:14;99786.41;;;28.83;36.98
46954;BME280;32707;43.886;12.874;2022-09-27T12:44:40;99802.50;;;27.58;39.02
46954;BME280;32707;43.886;12.874;2022-09-27T12:50:04;99801.94;;;27.24;40.24
46954;BME280;32707;43.886;12.874;2022-09-27T12:52:40;99808.97;;;26.98;40.42
46954;BME280;32707;43.886;12.874;2022-09-27T13:01:03;99802.34;;;25.71;42.70
46954;BME280;32707;43.886;12.874;2022-09-27T13:15:58;99804.75;;;23.43;46.06
46954;BME280;32707;43.886;12.874;2022-09-27T13:21:01;99808.63;;;23.29;45.93
46954;BME280;32707;43.886;12.874;2022-09-27T13:26:00;99835.13;;;23.29;45.80
46954;BME280;32707;43.886;12.874;2022-09-27T13:31:13;99830.56;;;23.08;46.40
46954;BME280;32707;43.886;12.874;2022-09-27T13:33:51;99823.31;;;23.04;46.38
46954;BME280;32707;43.886;12.874;2022-09-27T13:43:15;99817.50;;;22.80;46.84
46954;BME280;32707;43.886;12.874;2022-09-27T13:48:50;99832.81;;;22.63;47.68
46954;BME280;32707;43.886;12.874;2022-09-27T13:51:56;99833.72;;;22.56;47.56
46954;BME280;32707;43.886;12.874;2022-09-27T13:54:54;99836.66;;;22.80;47.25
46954;BME280;32707;43.886;12.874;2022-09-27T14:00:22;99823.53;;;23.64;45.85
46954;BME280;32707;43.886;12.874;2022-09-27T14:03:22;99827.63;;;23.63;45.67
46954;BME280;32707;43.886;12.874;2022-09-27T14:05:58;99817.34;;;23.45;45.88
46954;BME280;32707;43.886;12.874;2022-09-27T14:08:44;99824.47;;;23.34;46.17
46954;BME280;32707;43.886;12.874;2022-09-27T14:11:20;99822.53;;;23.27;46.24
46954;BME280;32707;43.886;12.874;2022-09-27T14:13:51;99824.38;;;23.14;46.28
46954;BME280;32707;43.886;12.874;2022-09-27T14:16:17;99834.88;;;23.20;46.20
46954;BME280;32707;43.886;12.874;2022-09-27T14:18:48;99832.72;;;23.28;45.87
46954;BME280;32707;43.886;12.874;2022-09-27T14:21:41;99826.06;;;23.35;45.77
46954;BME280;32707;43.886;12.874;2022-09-27T14:26:48;99819.94;;;23.36;45.87
46954;BME280;32707;43.886;12.874;2022-09-27T14:29:19;99818.59;;;23.44;45.76
46954;BME280;32707;43.886;12.874;2022-09-27T14:31:45;99813.25;;;23.46;45.73
46954;BME280;32707;43.886;12.874;2022-09-27T14:34:14;99805.03;;;23.72;45.03
46954;BME280;32707;43.886;12.874;2022-09-27T14:36:44;99807.72;;;23.83;44.68
46954;BME280;32707;43.886;12.874;2022-09-27T14:39:32;99815.84;;;23.37;45.51
46954;BME280;32707;43.886;12.874;2022-09-27T14:42:04;99812.41;;;23.22;45.99
46954;BME280;32707;43.886;12.874;2022-09-27T14:44:31;99805.59;;;23.87;44.73
46954;BME280;32707;43.886;12.874;2022-09-27T14:47:20;99809.31;;;24.48;43.49
46954;BME280;32707;43.886;12.874;2022-09-27T14:52:28;99806.38;;;25.08;42.53
46954;BME280;32707;43.886;12.874;2022-09-27T14:55:00;99800.41;;;25.51;41.97
46954;BME280;32707;43.886;12.874;2022-09-27T14:57:43;99789.63;;;25.22;42.50
46954;BME280;32707;43.886;12.874;2022-09-27T15:00:26;99797.53;;;24.25;44.45
46954;BME280;32707;43.886;12.874;2022-09-27T15:02:56;99803.69;;;23.57;45.84
46954;BME280;32707;43.886;12.874;2022-09-27T15:05:31;99808.50;;;23.13;46.66
46954;BME280;32707;43.886;12.874;2022-09-27T15:08:10;99819.06;;;22.85;47.35
46954;BME280;32707;43.886;12.874;2022-09-27T15:11:06;99815.75;;;22.59;47.93
46954;BME280;32707;43.886;12.874;2022-09-27T15:13:39;99821.13;;;22.54;48.02
46954;BME280;32707;43.886;12.874;2022-09-27T15:16:35;99830.28;;;22.38;48.40
46954;BME280;32707;43.886;12.874;2022-09-27T15:19:10;99825.06;;;22.32;48.51
46954;BME280;32707;43.886;12.874;2022-09-27T15:21:38;99825.06;;;22.32;48.41
46954;BME280;32707;43.886;12.874;2022-09-27T15:24:03;99814.03;;;22.35;48.44
46954;BME280;32707;43.886;12.874;2022-09-27T15:26:39;99808.66;;;22.40;48.50
46954;BME280;32707;43.886;12.874;2022-09-27T15:29:14;99807.91;;;22.36;48.58
46954;BME280;32707;43.886;12.874;2022-09-27T15:31:41;99807.16;;;22.32;48.57
46954;BME280;32707;43.886;12.874;2022-09-27T15:34:16;99795.81;;;22.28;48.63
46954;BME280;32707;43.886;12.874;2022-09-27T15:36:52;99793.00;;;22.21;48.78
46954;BME280;32707;43.886;12.874;2022-09-27T15:39:31;99797.56;;;22.15;48.86
46954;BME280;32707;43.886;12.874;2022-09-27T15:42:08;99792.31;;;22.10;48.70
46954;BME280;32707;43.886;12.874;2022-09-27T15:44:50;99801.28;;;22.08;48.63
46954;BME280;32707;43.886;12.874;2022-09-27T15:52:51;99789.09;;;22.08;48.36
46954;BME280;32707;43.886;12.874;2022-09-27T15:55:22;99798.91;;;22.03;48.21
46954;BME280;32707;43.886;12.874;2022-09-27T15:58:04;99803.41;;;22.01;48.17
46954;BME280;32707;43.886;12.874;2022-09-27T16:00:33;99795.69;;;21.98;48.17
46954;BME280;32707;43.886;12.874;2022-09-27T16:03:00;99799.81;;;21.97;48.16
46954;BME280;32707;43.886;12.874;2022-09-27T16:05:26;99801.84;;;21.96;48.03
46954;BME280;32707;43.886;12.874;2022-09-27T16:07:54;99810.44;;;21.92;47.95
46954;BME280;32707;43.886;12.874;2022-09-27T16:10:28;99804.34;;;21.90;47.99